FDX4181 KMCO-KIND
Flight info
| Callsign | FDX4181 |
|---|---|
| Flight time | 1h 57m |
| Altitude | 32000 |
| Route | RDSOX1 JFRYS BRUTS Q118 THRSR Q79 SWAPP HAGAL GIIBS4 |
| Aircraft | MD11/H-SDE1E2E3FGHIJ2J3J4J5M1RWXY/LB1D1 |
Departure
| Time | 2026-04-21 18:36 |
|---|---|
| Airport | Orlando International Airport (KMCO) |
Arrival
| Time | 2026-04-21 20:33 |
|---|---|
| Airport | Indianapolis International Airport (KIND) |
| Time | Latitude | Longitude | Altitude | Speed | Heading |
|---|---|---|---|---|---|
| 2026-04-21 18:09 | 28.41473 | -81.33553 | 124 ft | 0 kts | 358° |
| 2026-04-21 18:21 | 28.41454 | -81.33553 | 106 ft | 4 kts | 0° |
| 2026-04-21 18:21 | 28.41428 | -81.33553 | 105 ft | 4 kts | 359° |
| 2026-04-21 18:21 | 28.41410 | -81.33555 | 105 ft | 4 kts | 50° |
| 2026-04-21 18:22 | 28.41397 | -81.33579 | 103 ft | 3 kts | 69° |
| 2026-04-21 18:22 | 28.41397 | -81.33581 | 103 ft | 1 kts | 70° |
| 2026-04-21 18:22 | 28.41402 | -81.33555 | 104 ft | 4 kts | 81° |
| 2026-04-21 18:22 | 28.41404 | -81.33524 | 105 ft | 4 kts | 87° |
| 2026-04-21 18:23 | 28.41404 | -81.33494 | 105 ft | 4 kts | 89° |
| 2026-04-21 18:23 | 28.41404 | -81.33453 | 105 ft | 4 kts | 90° |
| 2026-04-21 18:23 | 28.41404 | -81.33423 | 105 ft | 4 kts | 90° |
| 2026-04-21 18:23 | 28.41404 | -81.33392 | 105 ft | 4 kts | 90° |
| 2026-04-21 18:24 | 28.41404 | -81.33373 | 105 ft | 2 kts | 90° |
| 2026-04-21 18:24 | 28.41404 | -81.33371 | 105 ft | 0 kts | 90° |
| 2026-04-21 18:27 | 28.41404 | -81.33365 | 105 ft | 2 kts | 90° |
| 2026-04-21 18:27 | 28.41403 | -81.33338 | 105 ft | 3 kts | 91° |
| 2026-04-21 18:27 | 28.41403 | -81.33325 | 105 ft | 2 kts | 91° |
| 2026-04-21 18:28 | 28.41403 | -81.33295 | 105 ft | 6 kts | 90° |
| 2026-04-21 18:28 | 28.41404 | -81.33238 | 105 ft | 9 kts | 89° |
| 2026-04-21 18:28 | 28.41404 | -81.33166 | 105 ft | 8 kts | 89° |
| 2026-04-21 18:28 | 28.41405 | -81.33103 | 105 ft | 8 kts | 86° |
| 2026-04-21 18:29 | 28.41422 | -81.33049 | 104 ft | 6 kts | 59° |
| 2026-04-21 18:29 | 28.41442 | -81.33019 | 105 ft | 5 kts | 49° |
| 2026-04-21 18:29 | 28.41455 | -81.33003 | 106 ft | 0 kts | 48° |
| 2026-04-21 18:33 | 28.41458 | -81.33000 | 104 ft | 2 kts | 47° |
| 2026-04-21 18:33 | 28.41480 | -81.32974 | 106 ft | 7 kts | 45° |
| 2026-04-21 18:34 | 28.41509 | -81.32938 | 106 ft | 6 kts | 52° |
| 2026-04-21 18:34 | 28.41532 | -81.32876 | 106 ft | 9 kts | 78° |
| 2026-04-21 18:34 | 28.41536 | -81.32813 | 106 ft | 6 kts | 89° |
| 2026-04-21 18:34 | 28.41536 | -81.32794 | 107 ft | 0 kts | 89° |
| 2026-04-21 18:35 | 28.41536 | -81.32759 | 107 ft | 7 kts | 89° |
| 2026-04-21 18:35 | 28.41541 | -81.32696 | 108 ft | 8 kts | 75° |
| 2026-04-21 18:35 | 28.41606 | -81.32664 | 108 ft | 16 kts | 0° |
| 2026-04-21 18:36 | 28.41897 | -81.32667 | 107 ft | 82 kts | 0° |
| 2026-04-21 18:36 | 28.42739 | -81.32674 | 106 ft | 157 kts | 359° |
| 2026-04-21 18:36 | 28.43967 | -81.32728 | 451 ft | 184 kts | 2° |
| 2026-04-21 18:36 | 28.45232 | -81.32844 | 1471 ft | 183 kts | 1° |
| 2026-04-21 18:37 | 28.46474 | -81.32925 | 2501 ft | 177 kts | 7° |
| 2026-04-21 18:37 | 28.47713 | -81.32897 | 3413 ft | 187 kts | 8° |
| 2026-04-21 18:37 | 28.49152 | -81.32853 | 3671 ft | 227 kts | 6° |
| 2026-04-21 18:37 | 28.50786 | -81.32825 | 4301 ft | 237 kts | 5° |
| 2026-04-21 18:38 | 28.52445 | -81.32818 | 5139 ft | 240 kts | 5° |
| 2026-04-21 18:38 | 28.54134 | -81.32871 | 5739 ft | 249 kts | 355° |
| 2026-04-21 18:38 | 28.55806 | -81.33422 | 6099 ft | 252 kts | 343° |
| 2026-04-21 18:38 | 28.57418 | -81.34221 | 6471 ft | 255 kts | 335° |
| 2026-04-21 18:39 | 28.58866 | -81.35499 | 6843 ft | 280 kts | 313° |
| 2026-04-21 18:39 | 28.59737 | -81.37504 | 6950 ft | 290 kts | 284° |
| 2026-04-21 18:39 | 28.59921 | -81.39801 | 6965 ft | 295 kts | 272° |
| 2026-04-21 18:39 | 28.59880 | -81.42138 | 6964 ft | 294 kts | 269° |
| 2026-04-21 18:40 | 28.59805 | -81.44452 | 6962 ft | 292 kts | 269° |
| 2026-04-21 18:40 | 28.59738 | -81.46768 | 6960 ft | 295 kts | 270° |
| 2026-04-21 18:40 | 28.59671 | -81.48345 | 6960 ft | 296 kts | 263° |
| 2026-04-21 18:40 | 28.58897 | -81.51310 | 7288 ft | 296 kts | 247° |
| 2026-04-21 18:41 | 28.58070 | -81.53442 | 8326 ft | 296 kts | 246° |
| 2026-04-21 18:41 | 28.57218 | -81.55574 | 9316 ft | 296 kts | 246° |
| 2026-04-21 18:41 | 28.56361 | -81.57710 | 10189 ft | 303 kts | 247° |
| 2026-04-21 18:41 | 28.55445 | -81.60003 | 10339 ft | 333 kts | 247° |
| 2026-04-21 18:42 | 28.54450 | -81.62510 | 10493 ft | 362 kts | 247° |
| 2026-04-21 18:42 | 28.53402 | -81.65142 | 11248 ft | 367 kts | 248° |
| 2026-04-21 18:42 | 28.52343 | -81.67802 | 12083 ft | 372 kts | 248° |
| 2026-04-21 18:42 | 28.51273 | -81.70489 | 12920 ft | 375 kts | 248° |
| 2026-04-21 18:43 | 28.50194 | -81.73199 | 13747 ft | 379 kts | 248° |
| 2026-04-21 18:43 | 28.49102 | -81.75941 | 14494 ft | 382 kts | 248° |
| 2026-04-21 18:43 | 28.48002 | -81.78702 | 15223 ft | 384 kts | 248° |
| 2026-04-21 18:43 | 28.46895 | -81.81482 | 15930 ft | 387 kts | 248° |
| 2026-04-21 18:44 | 28.45780 | -81.84277 | 16634 ft | 389 kts | 248° |
| 2026-04-21 18:44 | 28.44660 | -81.87085 | 17278 ft | 392 kts | 248° |
| 2026-04-21 18:44 | 28.43533 | -81.89918 | 17936 ft | 394 kts | 249° |
| 2026-04-21 18:44 | 28.42708 | -81.92868 | 18554 ft | 392 kts | 262° |
| 2026-04-21 18:45 | 28.42460 | -81.95949 | 19050 ft | 394 kts | 270° |
| 2026-04-21 18:45 | 28.42484 | -81.99034 | 19539 ft | 396 kts | 273° |
| 2026-04-21 18:45 | 28.42594 | -82.02206 | 20143 ft | 397 kts | 274° |
| 2026-04-21 18:45 | 28.42710 | -82.05340 | 20694 ft | 398 kts | 274° |
| 2026-04-21 18:46 | 28.42808 | -82.08480 | 21295 ft | 398 kts | 273° |
| 2026-04-21 18:46 | 28.42886 | -82.11584 | 21868 ft | 399 kts | 273° |
| 2026-04-21 18:46 | 28.42950 | -82.14707 | 22483 ft | 400 kts | 273° |
| 2026-04-21 18:46 | 28.43006 | -82.17871 | 23116 ft | 401 kts | 272° |
| 2026-04-21 18:47 | 28.43058 | -82.21040 | 23996 ft | 402 kts | 272° |
| 2026-04-21 18:47 | 28.43106 | -82.24236 | 24175 ft | 405 kts | 272° |
| 2026-04-21 18:47 | 28.43153 | -82.27438 | 24735 ft | 406 kts | 273° |
| 2026-04-21 18:47 | 28.43200 | -82.30660 | 25220 ft | 409 kts | 273° |
| 2026-04-21 18:48 | 28.43255 | -82.33897 | 25711 ft | 411 kts | 274° |
| 2026-04-21 18:48 | 28.43472 | -82.37144 | 26184 ft | 413 kts | 280° |
| 2026-04-21 18:48 | 28.44072 | -82.40332 | 26650 ft | 414 kts | 288° |
| 2026-04-21 18:48 | 28.45148 | -82.43379 | 27035 ft | 418 kts | 297° |
| 2026-04-21 18:49 | 28.46697 | -82.46172 | 27557 ft | 419 kts | 307° |
| 2026-04-21 18:49 | 28.48653 | -82.48640 | 28028 ft | 423 kts | 316° |
| 2026-04-21 18:49 | 28.50153 | -82.50071 | 28346 ft | 426 kts | 322° |
| 2026-04-21 18:49 | 28.53585 | -82.52382 | 28961 ft | 433 kts | 332° |
| 2026-04-21 18:50 | 28.56369 | -82.53739 | 29416 ft | 437 kts | 335° |
| 2026-04-21 18:50 | 28.59212 | -82.54988 | 29879 ft | 439 kts | 336° |
| 2026-04-21 18:50 | 28.62038 | -82.56210 | 30293 ft | 442 kts | 336° |
| 2026-04-21 18:50 | 28.64904 | -82.57473 | 30656 ft | 443 kts | 335° |
| 2026-04-21 18:51 | 28.67767 | -82.58764 | 31012 ft | 444 kts | 335° |
| 2026-04-21 18:51 | 28.70663 | -82.60094 | 31383 ft | 443 kts | 335° |
| 2026-04-21 18:51 | 28.73508 | -82.61415 | 31752 ft | 441 kts | 335° |
| 2026-04-21 18:51 | 28.76347 | -82.62741 | 32111 ft | 441 kts | 334° |
| 2026-04-21 18:52 | 28.79143 | -82.64051 | 32242 ft | 439 kts | 334° |
| 2026-04-21 18:52 | 28.84784 | -82.66696 | 32286 ft | 438 kts | 334° |
| 2026-04-21 18:53 | 28.90424 | -82.69343 | 32287 ft | 438 kts | 334° |
| 2026-04-21 18:53 | 28.96067 | -82.71994 | 32281 ft | 438 kts | 334° |
| 2026-04-21 18:54 | 29.01705 | -82.74644 | 32286 ft | 438 kts | 334° |
| 2026-04-21 18:54 | 29.07346 | -82.77299 | 32284 ft | 437 kts | 334° |
| 2026-04-21 18:55 | 29.12017 | -82.79499 | 32282 ft | 438 kts | 334° |
| 2026-04-21 18:55 | 29.18604 | -82.82608 | 32285 ft | 439 kts | 334° |
| 2026-04-21 18:56 | 29.24253 | -82.85276 | 32283 ft | 439 kts | 334° |
| 2026-04-21 18:56 | 29.29905 | -82.87950 | 32285 ft | 439 kts | 334° |
| 2026-04-21 18:57 | 29.35548 | -82.90632 | 32299 ft | 439 kts | 334° |
| 2026-04-21 18:57 | 29.41161 | -82.93297 | 32293 ft | 437 kts | 334° |
| 2026-04-21 18:58 | 29.46778 | -82.95965 | 32285 ft | 437 kts | 334° |
| 2026-04-21 18:58 | 29.52387 | -82.98632 | 32289 ft | 437 kts | 334° |
| 2026-04-21 18:59 | 29.57954 | -83.01281 | 32282 ft | 437 kts | 334° |
| 2026-04-21 18:59 | 29.63575 | -83.03959 | 32284 ft | 437 kts | 334° |
| 2026-04-21 19:00 | 29.69186 | -83.06634 | 32286 ft | 436 kts | 334° |
| 2026-04-21 19:00 | 29.74772 | -83.09300 | 32285 ft | 435 kts | 334° |
| 2026-04-21 19:01 | 29.80375 | -83.11977 | 32289 ft | 435 kts | 334° |
| 2026-04-21 19:01 | 29.85968 | -83.14653 | 32290 ft | 435 kts | 334° |
| 2026-04-21 19:02 | 29.91573 | -83.17338 | 32290 ft | 438 kts | 334° |
| 2026-04-21 19:02 | 29.97198 | -83.20036 | 32301 ft | 437 kts | 334° |
| 2026-04-21 19:03 | 30.02795 | -83.22723 | 32301 ft | 437 kts | 334° |
| 2026-04-21 19:03 | 30.08396 | -83.25416 | 32300 ft | 437 kts | 334° |
| 2026-04-21 19:04 | 30.13991 | -83.28110 | 32307 ft | 437 kts | 334° |
| 2026-04-21 19:04 | 30.19592 | -83.30810 | 32300 ft | 437 kts | 334° |
| 2026-04-21 19:05 | 30.25199 | -83.33524 | 32307 ft | 436 kts | 334° |
| 2026-04-21 19:05 | 30.30789 | -83.36244 | 32305 ft | 436 kts | 334° |
| 2026-04-21 19:06 | 30.36376 | -83.38961 | 32310 ft | 436 kts | 334° |
| 2026-04-21 19:06 | 30.41966 | -83.41680 | 32309 ft | 437 kts | 334° |
| 2026-04-21 19:07 | 30.47562 | -83.44405 | 32313 ft | 437 kts | 334° |
| 2026-04-21 19:07 | 30.52243 | -83.46687 | 32312 ft | 442 kts | 334° |
| 2026-04-21 19:08 | 30.58872 | -83.49923 | 32318 ft | 446 kts | 334° |
| 2026-04-21 19:08 | 30.63664 | -83.52264 | 32317 ft | 446 kts | 334° |
| 2026-04-21 19:09 | 30.69387 | -83.55063 | 32319 ft | 448 kts | 333° |
| 2026-04-21 19:09 | 30.75138 | -83.57880 | 32317 ft | 449 kts | 333° |
| 2026-04-21 19:10 | 30.80856 | -83.60685 | 32339 ft | 449 kts | 333° |
| 2026-04-21 19:10 | 30.86599 | -83.63504 | 32315 ft | 447 kts | 333° |
| 2026-04-21 19:11 | 30.92330 | -83.66323 | 32316 ft | 447 kts | 333° |
| 2026-04-21 19:11 | 30.98059 | -83.69144 | 32314 ft | 447 kts | 333° |
| 2026-04-21 19:12 | 31.03794 | -83.71982 | 32311 ft | 447 kts | 333° |
| 2026-04-21 19:12 | 31.09526 | -83.74820 | 32325 ft | 447 kts | 333° |
| 2026-04-21 19:13 | 31.15247 | -83.77650 | 32313 ft | 447 kts | 333° |
| 2026-04-21 19:13 | 31.20967 | -83.80482 | 32314 ft | 447 kts | 333° |
| 2026-04-21 19:14 | 31.26695 | -83.83321 | 32317 ft | 447 kts | 333° |
| 2026-04-21 19:14 | 31.32414 | -83.86160 | 32323 ft | 447 kts | 333° |
| 2026-04-21 19:15 | 31.38127 | -83.88999 | 32351 ft | 447 kts | 333° |
| 2026-04-21 19:15 | 31.43835 | -83.91838 | 32324 ft | 446 kts | 333° |
| 2026-04-21 19:16 | 31.49578 | -83.94651 | 32329 ft | 450 kts | 336° |
| 2026-04-21 19:16 | 31.55687 | -83.96483 | 32330 ft | 456 kts | 344° |
| 2026-04-21 19:17 | 31.65026 | -83.98417 | 32331 ft | 457 kts | 345° |
| 2026-04-21 19:17 | 31.71267 | -83.99756 | 32333 ft | 455 kts | 344° |
| 2026-04-21 19:18 | 31.77493 | -84.01140 | 32335 ft | 455 kts | 344° |
| 2026-04-21 19:18 | 31.83713 | -84.02535 | 32333 ft | 455 kts | 344° |
| 2026-04-21 19:19 | 31.89936 | -84.03932 | 32334 ft | 455 kts | 344° |
| 2026-04-21 19:19 | 31.96156 | -84.05328 | 32319 ft | 455 kts | 344° |
| 2026-04-21 19:20 | 32.02369 | -84.06724 | 32308 ft | 454 kts | 344° |
| 2026-04-21 19:20 | 32.08579 | -84.08122 | 32302 ft | 454 kts | 344° |
| 2026-04-21 19:21 | 32.14785 | -84.09521 | 32302 ft | 454 kts | 344° |
| 2026-04-21 19:21 | 32.20995 | -84.10922 | 32297 ft | 454 kts | 344° |
| 2026-04-21 19:22 | 32.27164 | -84.12317 | 32306 ft | 455 kts | 344° |
| 2026-04-21 19:22 | 32.33384 | -84.13726 | 32306 ft | 455 kts | 344° |
| 2026-04-21 19:23 | 32.39596 | -84.15139 | 32324 ft | 455 kts | 344° |
| 2026-04-21 19:23 | 32.45816 | -84.16553 | 32324 ft | 455 kts | 344° |
| 2026-04-21 19:24 | 32.52036 | -84.17968 | 32322 ft | 456 kts | 344° |
| 2026-04-21 19:24 | 32.58277 | -84.19389 | 32320 ft | 457 kts | 344° |
| 2026-04-21 19:25 | 32.64521 | -84.20811 | 32331 ft | 457 kts | 344° |
| 2026-04-21 19:25 | 32.70773 | -84.22238 | 32339 ft | 457 kts | 344° |
| 2026-04-21 19:26 | 32.77008 | -84.23663 | 32361 ft | 457 kts | 344° |
| 2026-04-21 19:26 | 32.83273 | -84.25098 | 32355 ft | 459 kts | 344° |
| 2026-04-21 19:27 | 32.89502 | -84.26525 | 32358 ft | 459 kts | 344° |
| 2026-04-21 19:27 | 32.95812 | -84.27973 | 32358 ft | 459 kts | 344° |
| 2026-04-21 19:28 | 33.02042 | -84.29405 | 32351 ft | 458 kts | 344° |
| 2026-04-21 19:28 | 33.08307 | -84.30847 | 32345 ft | 459 kts | 344° |
| 2026-04-21 19:29 | 33.14581 | -84.32295 | 32354 ft | 459 kts | 344° |
| 2026-04-21 19:29 | 33.20855 | -84.33749 | 32363 ft | 459 kts | 344° |
| 2026-04-21 19:30 | 33.27125 | -84.35202 | 32371 ft | 459 kts | 344° |
| 2026-04-21 19:30 | 33.33393 | -84.36655 | 32376 ft | 459 kts | 344° |
| 2026-04-21 19:31 | 33.39659 | -84.38108 | 32345 ft | 459 kts | 344° |
| 2026-04-21 19:31 | 33.45923 | -84.39563 | 32344 ft | 459 kts | 344° |
| 2026-04-21 19:32 | 33.52198 | -84.41022 | 32347 ft | 459 kts | 343° |
| 2026-04-21 19:32 | 33.58471 | -84.42484 | 32356 ft | 460 kts | 344° |
| 2026-04-21 19:33 | 33.64769 | -84.43934 | 32348 ft | 461 kts | 344° |
| 2026-04-21 19:33 | 33.71085 | -84.45328 | 32348 ft | 461 kts | 345° |
| 2026-04-21 19:34 | 33.77400 | -84.46711 | 32339 ft | 461 kts | 344° |
| 2026-04-21 19:34 | 33.83716 | -84.48098 | 32357 ft | 461 kts | 344° |
| 2026-04-21 19:35 | 33.93198 | -84.50189 | 32333 ft | 462 kts | 344° |
| 2026-04-21 19:36 | 33.99515 | -84.51586 | 32358 ft | 462 kts | 344° |
| 2026-04-21 19:36 | 34.05811 | -84.53064 | 32358 ft | 461 kts | 343° |
| 2026-04-21 19:37 | 34.12072 | -84.54686 | 32362 ft | 460 kts | 342° |
| 2026-04-21 19:37 | 34.18337 | -84.56329 | 32347 ft | 461 kts | 342° |
| 2026-04-21 19:38 | 34.24602 | -84.57963 | 32341 ft | 461 kts | 342° |
| 2026-04-21 19:38 | 34.29809 | -84.59318 | 32342 ft | 461 kts | 342° |
| 2026-04-21 19:39 | 34.37144 | -84.61228 | 32351 ft | 461 kts | 342° |
| 2026-04-21 19:39 | 34.43375 | -84.62854 | 32329 ft | 461 kts | 342° |
| 2026-04-21 19:40 | 34.49655 | -84.64495 | 32329 ft | 461 kts | 342° |
| 2026-04-21 19:40 | 34.55927 | -84.66136 | 32329 ft | 461 kts | 342° |
| 2026-04-21 19:41 | 34.62212 | -84.67734 | 32349 ft | 461 kts | 343° |
| 2026-04-21 19:41 | 34.68518 | -84.69296 | 32328 ft | 462 kts | 343° |
| 2026-04-21 19:42 | 34.74820 | -84.70854 | 32311 ft | 462 kts | 343° |
| 2026-04-21 19:42 | 34.81120 | -84.72417 | 32312 ft | 462 kts | 343° |
| 2026-04-21 19:43 | 34.87422 | -84.73985 | 32316 ft | 462 kts | 343° |
| 2026-04-21 19:43 | 34.93719 | -84.75554 | 32313 ft | 463 kts | 343° |
| 2026-04-21 19:44 | 34.99982 | -84.77118 | 32310 ft | 463 kts | 343° |
| 2026-04-21 19:44 | 35.06291 | -84.78695 | 32303 ft | 462 kts | 343° |
| 2026-04-21 19:45 | 35.12590 | -84.80271 | 32303 ft | 462 kts | 343° |
| 2026-04-21 19:45 | 35.18903 | -84.81856 | 32277 ft | 464 kts | 343° |
| 2026-04-21 19:46 | 35.25238 | -84.83447 | 32276 ft | 464 kts | 343° |
| 2026-04-21 19:46 | 35.31564 | -84.85038 | 32276 ft | 464 kts | 343° |
| 2026-04-21 19:47 | 35.37879 | -84.86628 | 32283 ft | 463 kts | 343° |
| 2026-04-21 19:47 | 35.44207 | -84.88233 | 32289 ft | 466 kts | 343° |
| 2026-04-21 19:48 | 35.50553 | -84.89843 | 32301 ft | 467 kts | 343° |
| 2026-04-21 19:48 | 35.56865 | -84.91441 | 32300 ft | 466 kts | 343° |
| 2026-04-21 19:49 | 35.63209 | -84.93048 | 32290 ft | 466 kts | 343° |
| 2026-04-21 19:49 | 35.69561 | -84.94661 | 32297 ft | 468 kts | 344° |
| 2026-04-21 19:50 | 35.74908 | -84.96018 | 32296 ft | 468 kts | 344° |
| 2026-04-21 19:50 | 35.82300 | -84.97897 | 32293 ft | 467 kts | 344° |
| 2026-04-21 19:51 | 35.88637 | -84.99510 | 32320 ft | 467 kts | 344° |
| 2026-04-21 19:51 | 35.94990 | -85.01131 | 32321 ft | 466 kts | 344° |
| 2026-04-21 19:52 | 36.01337 | -85.02753 | 32320 ft | 466 kts | 344° |
| 2026-04-21 19:52 | 36.07685 | -85.04378 | 32316 ft | 466 kts | 344° |
| 2026-04-21 19:53 | 36.14017 | -85.06000 | 32309 ft | 463 kts | 343° |
| 2026-04-21 19:53 | 36.19269 | -85.07350 | 32305 ft | 464 kts | 344° |
| 2026-04-21 19:54 | 36.25598 | -85.08978 | 32294 ft | 465 kts | 344° |
| 2026-04-21 19:54 | 36.31930 | -85.10608 | 32287 ft | 464 kts | 344° |
| 2026-04-21 19:55 | 36.38256 | -85.12240 | 32280 ft | 464 kts | 344° |
| 2026-04-21 19:55 | 36.44570 | -85.13878 | 32284 ft | 464 kts | 344° |
| 2026-04-21 19:56 | 36.50845 | -85.15508 | 32273 ft | 463 kts | 344° |
| 2026-04-21 19:56 | 36.57156 | -85.17146 | 32271 ft | 463 kts | 344° |
| 2026-04-21 19:57 | 36.63457 | -85.18775 | 32274 ft | 463 kts | 344° |
| 2026-04-21 19:57 | 36.69761 | -85.20385 | 32280 ft | 463 kts | 344° |
| 2026-04-21 19:58 | 36.76081 | -85.21997 | 32274 ft | 463 kts | 344° |
| 2026-04-21 19:58 | 36.82396 | -85.23611 | 32274 ft | 463 kts | 344° |
| 2026-04-21 19:59 | 36.88720 | -85.25231 | 32269 ft | 463 kts | 344° |
| 2026-04-21 19:59 | 36.94992 | -85.26840 | 32268 ft | 463 kts | 344° |
| 2026-04-21 20:00 | 37.01290 | -85.28459 | 32259 ft | 463 kts | 344° |
| 2026-04-21 20:00 | 37.07605 | -85.30085 | 32258 ft | 463 kts | 344° |
| 2026-04-21 20:01 | 37.13916 | -85.31713 | 32259 ft | 463 kts | 344° |
| 2026-04-21 20:01 | 37.20203 | -85.33336 | 32247 ft | 461 kts | 344° |
| 2026-04-21 20:02 | 37.26486 | -85.34962 | 32240 ft | 461 kts | 344° |
| 2026-04-21 20:02 | 37.32767 | -85.36591 | 32241 ft | 461 kts | 344° |
| 2026-04-21 20:03 | 37.39041 | -85.38220 | 32252 ft | 461 kts | 344° |
| 2026-04-21 20:03 | 37.45310 | -85.39854 | 32232 ft | 459 kts | 344° |
| 2026-04-21 20:04 | 37.51543 | -85.41485 | 32217 ft | 459 kts | 344° |
| 2026-04-21 20:04 | 37.57785 | -85.43118 | 32200 ft | 459 kts | 344° |
| 2026-04-21 20:05 | 37.64046 | -85.44756 | 32205 ft | 459 kts | 344° |
| 2026-04-21 20:05 | 37.70300 | -85.46393 | 32187 ft | 459 kts | 344° |
| 2026-04-21 20:06 | 37.76546 | -85.48032 | 32183 ft | 459 kts | 344° |
| 2026-04-21 20:06 | 37.82742 | -85.49660 | 32183 ft | 459 kts | 344° |
| 2026-04-21 20:07 | 37.89000 | -85.51308 | 32195 ft | 458 kts | 343° |
| 2026-04-21 20:07 | 37.95226 | -85.52949 | 32185 ft | 457 kts | 343° |
| 2026-04-21 20:08 | 38.01441 | -85.54592 | 32176 ft | 457 kts | 343° |
| 2026-04-21 20:08 | 38.07667 | -85.56240 | 32177 ft | 457 kts | 343° |
| 2026-04-21 20:09 | 38.13890 | -85.57889 | 32181 ft | 457 kts | 343° |
| 2026-04-21 20:09 | 38.20165 | -85.59267 | 32169 ft | 460 kts | 348° |
| 2026-04-21 20:10 | 38.26516 | -85.60212 | 32177 ft | 461 kts | 349° |
| 2026-04-21 20:10 | 38.32849 | -85.61101 | 32103 ft | 461 kts | 349° |
| 2026-04-21 20:10 | 38.36036 | -85.61560 | 31726 ft | 461 kts | 348° |
| 2026-04-21 20:11 | 38.39227 | -85.62031 | 31226 ft | 463 kts | 348° |
| 2026-04-21 20:11 | 38.42425 | -85.62514 | 30586 ft | 462 kts | 349° |
| 2026-04-21 20:11 | 38.45614 | -85.62999 | 29939 ft | 460 kts | 349° |
| 2026-04-21 20:11 | 38.48782 | -85.63481 | 29282 ft | 456 kts | 349° |
| 2026-04-21 20:12 | 38.51910 | -85.63956 | 28658 ft | 452 kts | 348° |
| 2026-04-21 20:12 | 38.55020 | -85.64430 | 28066 ft | 448 kts | 348° |
| 2026-04-21 20:12 | 38.58102 | -85.64895 | 27495 ft | 444 kts | 348° |
| 2026-04-21 20:12 | 38.61164 | -85.65349 | 26863 ft | 441 kts | 348° |
| 2026-04-21 20:13 | 38.64187 | -85.65793 | 26236 ft | 437 kts | 348° |
| 2026-04-21 20:13 | 38.67192 | -85.66233 | 25625 ft | 433 kts | 348° |
| 2026-04-21 20:13 | 38.70168 | -85.66669 | 25039 ft | 429 kts | 348° |
| 2026-04-21 20:13 | 38.73126 | -85.67103 | 24427 ft | 426 kts | 348° |
| 2026-04-21 20:14 | 38.76055 | -85.67534 | 23835 ft | 422 kts | 348° |
| 2026-04-21 20:14 | 38.78957 | -85.67961 | 23156 ft | 418 kts | 348° |
| 2026-04-21 20:14 | 38.81831 | -85.68385 | 22537 ft | 414 kts | 348° |
| 2026-04-21 20:14 | 38.84674 | -85.68804 | 21933 ft | 411 kts | 348° |
| 2026-04-21 20:15 | 38.87513 | -85.69224 | 21339 ft | 408 kts | 348° |
| 2026-04-21 20:15 | 38.90310 | -85.69637 | 20762 ft | 405 kts | 348° |
| 2026-04-21 20:15 | 38.93097 | -85.70050 | 20195 ft | 401 kts | 348° |
| 2026-04-21 20:15 | 38.95865 | -85.70460 | 19669 ft | 398 kts | 348° |
| 2026-04-21 20:16 | 38.98608 | -85.70866 | 19249 ft | 395 kts | 348° |
| 2026-04-21 20:16 | 39.01333 | -85.71281 | 19061 ft | 394 kts | 347° |
| 2026-04-21 20:16 | 39.04050 | -85.71734 | 18761 ft | 395 kts | 347° |
| 2026-04-21 20:16 | 39.06757 | -85.72206 | 18147 ft | 390 kts | 347° |
| 2026-04-21 20:17 | 39.09435 | -85.72679 | 17530 ft | 387 kts | 347° |
| 2026-04-21 20:17 | 39.12095 | -85.73151 | 16959 ft | 385 kts | 347° |
| 2026-04-21 20:17 | 39.14722 | -85.73684 | 16401 ft | 379 kts | 342° |
| 2026-04-21 20:17 | 39.17214 | -85.74689 | 15864 ft | 372 kts | 334° |
| 2026-04-21 20:18 | 39.18798 | -85.75524 | 15505 ft | 370 kts | 332° |
| 2026-04-21 20:18 | 39.21914 | -85.77341 | 14789 ft | 366 kts | 331° |
| 2026-04-21 20:18 | 39.24224 | -85.78724 | 14258 ft | 365 kts | 331° |
| 2026-04-21 20:18 | 39.26521 | -85.80091 | 13712 ft | 363 kts | 331° |
| 2026-04-21 20:19 | 39.28778 | -85.81423 | 13249 ft | 360 kts | 332° |
| 2026-04-21 20:19 | 39.31089 | -85.82776 | 12863 ft | 360 kts | 332° |
| 2026-04-21 20:19 | 39.33297 | -85.84260 | 12471 ft | 356 kts | 323° |
| 2026-04-21 20:19 | 39.35284 | -85.86064 | 11842 ft | 349 kts | 319° |
| 2026-04-21 20:20 | 39.37178 | -85.88017 | 11404 ft | 348 kts | 317° |
| 2026-04-21 20:20 | 39.39022 | -85.89985 | 11174 ft | 334 kts | 316° |
| 2026-04-21 20:20 | 39.40739 | -85.91811 | 11041 ft | 305 kts | 316° |
| 2026-04-21 20:20 | 39.42312 | -85.93474 | 10918 ft | 281 kts | 316° |
| 2026-04-21 20:21 | 39.43785 | -85.95032 | 10816 ft | 272 kts | 315° |
| 2026-04-21 20:21 | 39.45269 | -85.96607 | 10718 ft | 272 kts | 316° |
| 2026-04-21 20:21 | 39.46745 | -85.98121 | 10567 ft | 272 kts | 317° |
| 2026-04-21 20:21 | 39.48247 | -85.99623 | 10191 ft | 272 kts | 317° |
| 2026-04-21 20:22 | 39.49750 | -86.01114 | 9685 ft | 274 kts | 317° |
| 2026-04-21 20:22 | 39.52795 | -86.04124 | 8711 ft | 277 kts | 316° |
| 2026-04-21 20:22 | 39.54311 | -86.05620 | 8275 ft | 276 kts | 316° |
| 2026-04-21 20:23 | 39.55856 | -86.07144 | 7901 ft | 273 kts | 316° |
| 2026-04-21 20:23 | 39.57342 | -86.08609 | 7537 ft | 271 kts | 316° |
| 2026-04-21 20:23 | 39.58836 | -86.10084 | 7176 ft | 268 kts | 315° |
| 2026-04-21 20:23 | 39.60223 | -86.11647 | 7028 ft | 255 kts | 309° |
| 2026-04-21 20:24 | 39.61499 | -86.13276 | 6682 ft | 258 kts | 307° |
| 2026-04-21 20:24 | 39.62746 | -86.14909 | 6317 ft | 248 kts | 307° |
| 2026-04-21 20:24 | 39.63922 | -86.16446 | 5905 ft | 232 kts | 307° |
| 2026-04-21 20:24 | 39.65089 | -86.17829 | 5494 ft | 226 kts | 317° |
| 2026-04-21 20:25 | 39.66549 | -86.18593 | 5104 ft | 232 kts | 346° |
| 2026-04-21 20:25 | 39.68178 | -86.18205 | 4681 ft | 253 kts | 24° |
| 2026-04-21 20:25 | 39.69602 | -86.16842 | 4314 ft | 256 kts | 41° |
| 2026-04-21 20:25 | 39.70886 | -86.15244 | 3951 ft | 256 kts | 44° |
| 2026-04-21 20:26 | 39.72140 | -86.13619 | 3589 ft | 253 kts | 44° |
| 2026-04-21 20:26 | 39.73373 | -86.12015 | 3210 ft | 251 kts | 45° |
| 2026-04-21 20:26 | 39.74607 | -86.10413 | 3038 ft | 251 kts | 45° |
| 2026-04-21 20:26 | 39.75836 | -86.08814 | 3010 ft | 251 kts | 45° |
| 2026-04-21 20:27 | 39.77138 | -86.07290 | 2905 ft | 252 kts | 30° |
| 2026-04-21 20:27 | 39.78746 | -86.06600 | 2748 ft | 241 kts | 357° |
| 2026-04-21 20:27 | 39.80306 | -86.07023 | 2599 ft | 216 kts | 322° |
| 2026-04-21 20:27 | 39.81460 | -86.08006 | 2552 ft | 186 kts | 315° |
| 2026-04-21 20:28 | 39.82462 | -86.08937 | 2549 ft | 173 kts | 315° |
| 2026-04-21 20:28 | 39.83397 | -86.09886 | 2539 ft | 165 kts | 299° |
| 2026-04-21 20:28 | 39.83731 | -86.11144 | 2522 ft | 141 kts | 255° |
| 2026-04-21 20:28 | 39.83326 | -86.12254 | 2635 ft | 138 kts | 234° |
| 2026-04-21 20:29 | 39.82777 | -86.13291 | 2588 ft | 139 kts | 234° |
| 2026-04-21 20:29 | 39.82250 | -86.14329 | 2572 ft | 137 kts | 234° |
| 2026-04-21 20:29 | 39.81715 | -86.15332 | 2565 ft | 136 kts | 227° |
| 2026-04-21 20:29 | 39.81053 | -86.16261 | 2582 ft | 140 kts | 227° |
| 2026-04-21 20:30 | 39.80389 | -86.17172 | 2586 ft | 141 kts | 225° |
| 2026-04-21 20:30 | 39.79696 | -86.18057 | 2558 ft | 138 kts | 225° |
| 2026-04-21 20:30 | 39.79015 | -86.18927 | 2603 ft | 137 kts | 225° |
| 2026-04-21 20:30 | 39.78330 | -86.19805 | 2569 ft | 141 kts | 224° |
| 2026-04-21 20:31 | 39.77638 | -86.20693 | 2356 ft | 139 kts | 225° |
| 2026-04-21 20:31 | 39.76955 | -86.21570 | 2198 ft | 136 kts | 224° |
| 2026-04-21 20:31 | 39.76283 | -86.22432 | 2000 ft | 136 kts | 224° |
| 2026-04-21 20:31 | 39.75607 | -86.23300 | 1845 ft | 137 kts | 224° |
| 2026-04-21 20:32 | 39.74921 | -86.24176 | 1633 ft | 139 kts | 225° |
| 2026-04-21 20:32 | 39.74216 | -86.25081 | 1447 ft | 145 kts | 226° |
| 2026-04-21 20:32 | 39.73528 | -86.25991 | 1283 ft | 138 kts | 224° |
| 2026-04-21 20:32 | 39.72838 | -86.26880 | 1059 ft | 137 kts | 223° |
| 2026-04-21 20:33 | 39.72164 | -86.27719 | 851 ft | 135 kts | 223° |
| 2026-04-21 20:33 | 39.71532 | -86.28518 | 794 ft | 112 kts | 224° |
| 2026-04-21 20:33 | 39.71104 | -86.29066 | 795 ft | 72 kts | 224° |
| 2026-04-21 20:33 | 39.70878 | -86.29353 | 792 ft | 21 kts | 223° |
| 2026-04-21 20:34 | 39.70804 | -86.29378 | 793 ft | 14 kts | 163° |
| 2026-04-21 20:34 | 39.70753 | -86.29348 | 791 ft | 2 kts | 190° |
| 2026-04-21 20:34 | 39.70711 | -86.29375 | 791 ft | 8 kts | 216° |
| 2026-04-21 20:34 | 39.70672 | -86.29417 | 791 ft | 6 kts | 219° |
| 2026-04-21 20:35 | 39.70645 | -86.29444 | 791 ft | 9 kts | 216° |
| 2026-04-21 20:35 | 39.70581 | -86.29486 | 790 ft | 12 kts | 192° |
| 2026-04-21 20:35 | 39.70513 | -86.29447 | 789 ft | 10 kts | 134° |
| 2026-04-21 20:35 | 39.70503 | -86.29369 | 789 ft | 10 kts | 66° |
| 2026-04-21 20:36 | 39.70557 | -86.29299 | 789 ft | 11 kts | 43° |
| 2026-04-21 20:36 | 39.70611 | -86.29234 | 789 ft | 10 kts | 44° |
| 2026-04-21 20:36 | 39.70660 | -86.29171 | 789 ft | 10 kts | 45° |
| 2026-04-21 20:36 | 39.70719 | -86.29096 | 789 ft | 15 kts | 44° |
| 2026-04-21 20:37 | 39.70805 | -86.28986 | 789 ft | 20 kts | 45° |
| 2026-04-21 20:37 | 39.70907 | -86.28856 | 789 ft | 20 kts | 45° |
| 2026-04-21 20:37 | 39.71004 | -86.28733 | 789 ft | 18 kts | 44° |
| 2026-04-21 20:37 | 39.71069 | -86.28662 | 789 ft | 6 kts | 14° |
| 2026-04-21 20:38 | 39.71087 | -86.28678 | 789 ft | 4 kts | 309° |
| 2026-04-21 20:38 | 39.71111 | -86.28712 | 790 ft | 4 kts | 314° |
| 2026-04-21 20:38 | 39.71113 | -86.28714 | 790 ft | 0 kts | 314° |